Time;durP1;ratioP1;P1;durP2;ratioP2;P2;SDS_P1;SDS_P2;PMS_P1;PMS_P2;Temp;Humidity;BMP_temperature;BMP_pressure;BME280_temperature;BME280_humidity;BME280_pressure;Samples;Min_cycle;Max_cycle;Signal;HPM_P1;HPM_P2
2021/06/30 00:02:16;;;;;;;17.00;9.63;;;;;;;16.95;84.57;100894.53;5114977;27;20062;-69
2021/06/30 00:04:49;;;;;;;16.25;8.50;;;;;;;16.93;84.48;100889.31;5132940;27;20058;-68
2021/06/30 00:07:21;;;;;;;14.13;9.77;;;;;;;16.90;85.08;100887.25;5133448;27;20053;-70
2021/06/30 00:09:53;;;;;;;19.05;10.52;;;;;;;17.01;84.14;100887.56;5132537;27;20051;-66
2021/06/30 00:12:26;;;;;;;17.30;8.80;;;;;;;16.89;84.10;100891.22;5132482;27;20051;-68
2021/06/30 00:14:58;;;;;;;14.57;8.68;;;;;;;16.72;84.97;100899.78;5132316;27;20482;-67
2021/06/30 00:17:31;;;;;;;19.88;9.20;;;;;;;16.67;85.23;100897.25;5132963;27;20046;-68
2021/06/30 00:20:05;;;;;;;16.38;9.00;;;;;;;16.22;87.50;100896.56;5133030;27;20050;-67
2021/06/30 00:22:38;;;;;;;15.90;9.30;;;;;;;16.19;88.76;100894.47;5133014;27;20410;-69
2021/06/30 00:25:11;;;;;;;15.00;9.40;;;;;;;16.16;88.58;100904.31;5115332;27;20043;-67
2021/06/30 00:27:44;;;;;;;14.15;10.02;;;;;;;16.04;89.45;100895.97;5114744;27;20067;-68
2021/06/30 00:30:12;;;;;;;14.88;10.40;;;;;;;16.02;89.96;100889.13;5045361;27;20052;-69
2021/06/30 00:32:45;;;;;;;14.57;10.10;;;;;;;16.14;90.14;100889.16;5097383;27;20062;-67
2021/06/30 00:35:18;;;;;;;14.48;8.60;;;;;;;16.11;88.94;100887.84;5132290;27;20402;-68
2021/06/30 00:37:50;;;;;;;16.30;8.50;;;;;;;15.99;90.42;100893.41;5115267;27;20058;-67
2021/06/30 00:40:23;;;;;;;14.13;7.75;;;;;;;16.03;90.38;100894.34;5132014;27;20050;-67
2021/06/30 00:42:55;;;;;;;13.88;7.38;;;;;;;16.13;90.72;100890.28;5115126;27;20051;-68
2021/06/30 00:45:28;;;;;;;11.30;7.28;;;;;;;16.34;88.94;100896.56;5097445;27;20076;-68
2021/06/30 00:48:02;;;;;;;11.70;7.90;;;;;;;16.55;88.21;100891.72;5132336;27;20043;-68
2021/06/30 00:50:34;;;;;;;11.43;7.10;;;;;;;16.47;87.70;100889.88;5130654;27;20070;-68
2021/06/30 00:53:06;;;;;;;14.02;6.57;;;;;;;16.31;87.75;100902.81;5131551;27;20058;-67
2021/06/30 00:55:39;;;;;;;9.10;5.95;;;;;;;16.26;87.38;100891.94;5112936;28;20054;-68
2021/06/30 00:58:13;;;;;;;12.35;5.78;;;;;;;15.64;91.44;100901.31;5114154;27;20047;-68
2021/06/30 01:00:48;;;;;;;12.40;6.82;;;;;;;15.48;93.13;100900.34;5114703;27;20042;-68
2021/06/30 01:03:16;;;;;;;11.18;6.72;;;;;;;15.55;92.87;100908.91;5012734;28;20046;-69
2021/06/30 01:05:48;;;;;;;12.02;7.40;;;;;;;15.37;94.40;100901.91;5114755;28;20051;-69
2021/06/30 01:08:20;;;;;;;11.25;6.43;;;;;;;15.29;95.19;100905.53;5114798;28;20050;-67
2021/06/30 01:10:52;;;;;;;10.77;7.13;;;;;;;15.33;95.86;100898.19;5114585;28;20074;-68
2021/06/30 01:13:25;;;;;;;11.60;7.82;;;;;;;15.33;95.92;100906.50;5114753;28;20453;-73
2021/06/30 01:15:57;;;;;;;11.93;7.45;;;;;;;15.24;96.91;100904.94;5131499;28;20054;-72
2021/06/30 01:18:27;;;;;;;16.00;8.02;;;;;;;15.07;98.71;100903.13;5061414;28;20494;-71
2021/06/30 01:21:01;;;;;;;15.70;8.60;;;;;;;15.17;98.65;100899.13;5114278;28;20063;-72
2021/06/30 01:23:34;;;;;;;18.20;8.18;;;;;;;15.26;99.44;100897.09;5131162;28;20054;-73
2021/06/30 01:26:07;;;;;;;15.23;8.02;;;;;;;15.21;99.25;100908.41;5115080;27;20051;-75
2021/06/30 01:28:39;;;;;;;15.95;9.02;;;;;;;15.25;100.00;100899.06;5118310;27;20050;-72
2021/06/30 01:31:11;;;;;;;15.38;9.05;;;;;;;15.36;99.87;100888.38;5116815;27;20050;-74
2021/06/30 01:33:44;;;;;;;17.63;9.07;;;;;;;15.16;99.56;100892.78;5102281;27;20054;-73
2021/06/30 01:36:51;;;;;;;15.52;9.65;;;;;;;15.03;100.00;100895.84;5032249;28;20053;-74
2021/06/30 01:39:24;;;;;;;15.60;8.85;;;;;;;15.14;100.00;100888.72;5032165;28;20501;-74
2021/06/30 01:41:57;;;;;;;16.42;9.80;;;;;;;14.99;100.00;100889.34;5015770;28;20053;-72
2021/06/30 01:44:29;;;;;;;18.33;10.00;;;;;;;14.99;100.00;100884.63;5016330;28;20409;-69
2021/06/30 01:47:02;;;;;;;14.25;9.07;;;;;;;15.10;100.00;100888.56;5015732;28;20061;-68
2021/06/30 01:53:37;;;;;;;15.70;8.25;;;;;;;15.13;100.00;100900.97;5049257;27;20043;-69
2021/06/30 01:56:09;;;;;;;16.58;9.13;;;;;;;14.84;100.00;100898.25;5135511;27;20076;-67
2021/06/30 01:58:41;;;;;;;16.70;9.85;;;;;;;14.90;100.00;100906.06;5100588;27;20475;-70
2021/06/30 02:01:14;;;;;;;19.35;9.70;;;;;;;14.78;100.00;100899.59;5135691;27;20091;-66
2021/06/30 02:03:47;;;;;;;14.57;9.60;;;;;;;14.70;100.00;100903.25;5117360;27;20051;-68
2021/06/30 02:06:19;;;;;;;17.92;10.07;;;;;;;14.95;100.00;100900.28;5135443;27;20043;-69
2021/06/30 02:08:53;;;;;;;18.02;10.60;;;;;;;14.97;100.00;100906.31;5101720;27;20509;-67
2021/06/30 02:11:26;;;;;;;19.60;10.73;;;;;;;14.97;100.00;100906.31;5134102;27;20047;-66
2021/06/30 02:13:59;;;;;;;16.00;11.00;;;;;;;15.07;100.00;100902.31;5134566;27;20047;-67
2021/06/30 02:16:31;;;;;;;22.67;11.63;;;;;;;14.93;100.00;100899.81;5135657;27;20478;-69
2021/06/30 02:19:06;;;;;;;21.52;12.07;;;;;;;14.79;100.00;100910.34;5135556;27;20062;-71
2021/06/30 02:22:11;;;;;;;20.80;12.10;;;;;;;14.80;100.00;100900.91;5110574;27;20070;-67
2021/06/30 02:24:44;;;;;;;21.50;12.63;;;;;;;14.87;100.00;100900.38;5135049;27;20108;-69
2021/06/30 02:27:16;;;;;;;20.75;11.77;;;;;;;15.05;100.00;100908.22;5115824;27;20058;-68
2021/06/30 02:29:49;;;;;;;30.92;13.20;;;;;;;15.02;100.00;100908.91;5115874;27;20055;-66
2021/06/30 02:32:21;;;;;;;18.90;12.13;;;;;;;15.05;100.00;100916.53;5134404;27;20039;-68
2021/06/30 02:39:18;;;;;;;18.88;10.23;;;;;;;14.72;100.00;100917.56;5133112;27;20047;-67
2021/06/30 02:41:50;;;;;;;19.33;10.52;;;;;;;14.73;100.00;100920.03;5100292;27;20078;-67
2021/06/30 02:44:22;;;;;;;22.20;11.48;;;;;;;14.71;100.00;100919.56;5133891;27;20059;-68
2021/06/30 02:46:54;;;;;;;17.10;11.25;;;;;;;14.75;100.00;100916.94;5134408;27;20055;-67
2021/06/30 02:49:27;;;;;;;20.63;10.82;;;;;;;14.97;100.00;100913.81;5117132;27;20055;-66
2021/06/30 02:52:13;;;;;;;19.05;10.88;;;;;;;14.84;100.00;100918.47;5030028;28;20092;-66
2021/06/30 02:54:45;;;;;;;21.98;12.20;;;;;;;14.78;100.00;100919.03;5029948;28;20061;-67
2021/06/30 02:57:17;;;;;;;19.23;11.00;;;;;;;14.79;100.00;100920.63;5014950;28;20045;-67
2021/06/30 02:59:50;;;;;;;18.80;11.00;;;;;;;15.20;100.00;100921.47;5030603;28;20049;-66
2021/06/30 03:02:23;;;;;;;19.50;11.93;;;;;;;14.83;100.00;100918.81;5030889;28;20052;-67
2021/06/30 03:09:22;;;;;;;21.08;11.57;;;;;;;15.09;98.01;100930.53;5030044;28;20060;-67
2021/06/30 03:11:55;;;;;;;21.02;10.70;;;;;;;14.89;98.94;100926.59;5030070;28;20497;-66
2021/06/30 03:14:28;;;;;;;17.30;10.80;;;;;;;15.04;99.38;100926.00;5010875;28;20224;-69
2021/06/30 03:17:00;;;;;;;18.60;11.15;;;;;;;14.93;98.83;100929.50;5099021;27;20069;-67
2021/06/30 03:19:33;;;;;;;21.10;10.65;;;;;;;14.92;99.57;100922.34;5133482;27;20537;-66
2021/06/30 03:26:32;;;;;;;19.10;10.57;;;;;;;15.18;96.38;100931.28;5133550;27;20039;-67
2021/06/30 03:29:04;;;;;;;16.02;10.85;;;;;;;15.11;96.52;100928.25;5115401;27;20055;-66
2021/06/30 03:31:37;;;;;;;19.55;11.07;;;;;;;14.95;97.17;100936.34;5115747;27;20497;-67
2021/06/30 03:34:09;;;;;;;18.45;10.48;;;;;;;14.87;97.42;100934.44;5133648;27;20058;-66
2021/06/30 03:36:41;;;;;;;19.42;10.50;;;;;;;15.01;96.53;100929.44;5133478;27;20050;-67
2021/06/30 03:39:14;;;;;;;17.35;10.85;;;;;;;14.86;97.34;100934.78;5116055;27;20043;-69
2021/06/30 03:41:46;;;;;;;24.50;11.02;;;;;;;14.91;97.33;100935.41;5133193;27;20205;-67
2021/06/30 03:44:18;;;;;;;21.95;11.70;;;;;;;14.90;97.26;100938.50;5133637;27;20054;-68
2021/06/30 03:46:51;;;;;;;19.08;10.60;;;;;;;14.79;96.29;100951.13;5114184;27;20043;-67
2021/06/30 03:49:24;;;;;;;16.73;10.15;;;;;;;14.61;97.04;100933.78;5114301;27;20050;-68
2021/06/30 03:51:57;;;;;;;16.75;10.70;;;;;;;14.81;97.20;100941.34;5131547;27;20517;-66
2021/06/30 03:54:29;;;;;;;21.25;10.15;;;;;;;15.03;95.86;100945.78;5133481;27;20417;-71
2021/06/30 03:57:02;;;;;;;24.15;10.90;;;;;;;15.19;94.30;100942.03;5132552;27;20047;-73
2021/06/30 03:59:34;;;;;;;18.98;10.55;;;;;;;15.15;94.78;100940.28;5132489;27;20058;-69
2021/06/30 04:02:07;;;;;;;21.58;10.05;;;;;;;14.98;95.40;100943.16;5132765;27;20058;-72
2021/06/30 04:04:39;;;;;;;19.98;10.23;;;;;;;15.13;94.55;100946.16;5098850;27;20062;-74
2021/06/30 04:07:12;;;;;;;20.02;10.23;;;;;;;15.15;94.57;100943.06;5115645;27;20055;-72
2021/06/30 04:09:44;;;;;;;28.52;10.05;;;;;;;14.88;94.56;100944.41;5132905;27;20043;-75
2021/06/30 04:12:17;;;;;;;18.02;9.77;;;;;;;14.79;95.65;100954.72;5132542;27;20051;-73
2021/06/30 04:14:49;;;;;;;23.20;10.57;;;;;;;14.59;97.18;100941.66;5131879;27;20059;-70
2021/06/30 04:17:22;;;;;;;14.63;9.85;;;;;;;14.83;97.42;100950.16;5132619;27;20074;-72
2021/06/30 04:19:54;;;;;;;17.85;9.82;;;;;;;14.93;96.32;100943.38;5132888;27;20051;-69
2021/06/30 04:22:27;;;;;;;20.77;9.98;;;;;;;14.86;95.06;100943.09;5132281;27;20479;-69
2021/06/30 04:24:59;;;;;;;17.88;10.05;;;;;;;14.80;96.39;100945.28;5132597;27;20054;-67
2021/06/30 04:27:33;;;;;;;16.83;10.25;;;;;;;14.81;97.01;100941.34;5132714;27;20042;-69
2021/06/30 04:30:08;;;;;;;15.23;10.07;;;;;;;14.99;96.40;100942.88;5114893;27;20047;-69
2021/06/30 04:32:40;;;;;;;22.73;10.70;;;;;;;14.98;95.84;100941.22;5113569;27;20406;-70
2021/06/30 04:35:14;;;;;;;23.42;9.88;;;;;;;14.92;95.77;100947.31;5132389;27;20390;-69
2021/06/30 04:37:46;;;;;;;17.55;9.38;;;;;;;14.98;95.95;100954.28;5114033;27;20058;-67
2021/06/30 04:40:19;;;;;;;19.80;9.23;;;;;;;14.81;95.61;100954.38;5132528;27;20039;-69
2021/06/30 04:42:51;;;;;;;15.38;9.18;;;;;;;14.71;96.21;100952.84;5132138;27;20071;-70
2021/06/30 04:45:23;;;;;;;22.50;9.20;;;;;;;14.77;96.12;100953.47;5114417;27;20055;-69
2021/06/30 04:47:51;;;;;;;15.25;9.20;;;;;;;14.60;97.09;100951.59;5095196;27;20051;-70
2021/06/30 04:50:23;;;;;;;19.30;9.32;;;;;;;14.76;97.10;100955.41;5131553;27;20051;-69
2021/06/30 04:52:56;;;;;;;16.70;9.15;;;;;;;14.81;96.80;100957.97;5096229;27;20054;-71
2021/06/30 04:55:28;;;;;;;17.70;8.65;;;;;;;14.99;96.52;100955.91;5132656;27;20043;-69
2021/06/30 04:58:00;;;;;;;20.45;9.15;;;;;;;14.91;96.62;100952.03;5132174;27;20482;-71
2021/06/30 05:00:34;;;;;;;18.08;9.70;;;;;;;14.69;97.98;100949.56;5112954;27;20058;-67
2021/06/30 05:03:06;;;;;;;13.10;8.43;;;;;;;14.94;96.07;100950.56;5131317;27;20055;-68
2021/06/30 05:05:39;;;;;;;18.48;9.20;;;;;;;14.98;95.66;100962.59;5114894;28;20055;-69
2021/06/30 05:08:11;;;;;;;14.63;8.80;;;;;;;14.82;96.84;100956.03;5114923;28;20421;-67
2021/06/30 05:10:43;;;;;;;18.80;9.10;;;;;;;15.11;94.73;100956.81;5112981;28;20054;-68
2021/06/30 05:13:16;;;;;;;20.52;8.90;;;;;;;14.79;95.66;100965.00;5132171;28;20051;-71
2021/06/30 05:15:48;;;;;;;15.40;8.43;;;;;;;14.78;96.73;100957.84;5132004;28;20060;-68
2021/06/30 05:18:16;;;;;;;18.83;9.00;;;;;;;14.82;96.76;100964.34;5077817;28;20047;-68
2021/06/30 05:20:49;;;;;;;16.02;8.88;;;;;;;14.85;96.57;100964.50;5131865;28;20482;-71
2021/06/30 05:23:21;;;;;;;14.10;8.73;;;;;;;14.79;97.15;100971.38;5114612;28;20513;-70
2021/06/30 05:25:53;;;;;;;16.00;9.27;;;;;;;15.00;97.67;100966.66;5131743;28;20051;-70
2021/06/30 05:28:26;;;;;;;15.38;8.48;;;;;;;14.96;96.57;100962.94;5096778;28;20063;-71
2021/06/30 05:31:10;;;;;;;17.67;9.07;;;;;;;14.92;96.33;100978.66;5131743;28;20051;-71
2021/06/30 05:33:42;;;;;;;16.65;8.60;;;;;;;14.79;95.72;100973.31;5131942;28;20051;-69
2021/06/30 05:40:42;;;;;;;17.38;8.30;;;;;;;14.95;95.42;100985.47;5131759;28;20059;-68
2021/06/30 05:43:14;;;;;;;21.20;9.02;;;;;;;14.88;96.02;100983.22;5114247;28;20039;-68
2021/06/30 05:45:48;;;;;;;15.98;9.13;;;;;;;14.77;96.33;100987.53;5029101;28;20524;-70
2021/06/30 05:48:28;;;;;;;19.83;8.93;;;;;;;14.62;97.50;100988.09;5132515;28;20035;-69
2021/06/30 05:51:01;;;;;;;15.40;9.13;;;;;;;14.52;98.98;100988.50;5113449;28;20042;-70
2021/06/30 05:58:05;;;;;;;16.35;9.60;;;;;;;14.86;98.35;100984.69;5092466;28;20290;-74
2021/06/30 06:00:37;;;;;;;14.18;8.80;;;;;;;15.00;97.41;100988.03;5111525;28;20038;-73
2021/06/30 06:03:10;;;;;;;17.38;9.45;;;;;;;14.96;97.86;100987.09;5110726;28;20051;-71
2021/06/30 06:05:42;;;;;;;15.32;9.13;;;;;;;15.09;98.28;100991.56;5110571;28;20056;-74
2021/06/30 06:12:40;;;;;;;15.60;9.32;;;;;;;14.86;97.46;100999.38;5112826;28;20059;-71
2021/06/30 06:15:12;;;;;;;17.08;9.27;;;;;;;14.80;98.78;101000.75;5079913;28;20043;-72
2021/06/30 06:17:45;;;;;;;23.88;11.05;;;;;;;14.95;98.70;101008.47;5115101;28;20043;-67
2021/06/30 06:20:18;;;;;;;23.17;11.43;;;;;;;14.66;100.00;101005.72;5096737;28;20047;-72
2021/06/30 06:27:13;;;;;;;18.70;11.13;;;;;;;14.65;100.00;101009.59;5115133;28;20035;-69
2021/06/30 06:29:50;;;;;;;22.58;12.38;;;;;;;14.80;100.00;101014.63;5097320;28;20063;-68
2021/06/30 06:32:18;;;;;;;18.23;10.32;;;;;;;14.76;100.00;101007.28;5114035;28;20047;-75
2021/06/30 06:34:51;;;;;;;16.20;10.45;;;;;;;14.80;100.00;101016.56;5114479;28;20047;-74
2021/06/30 06:37:24;;;;;;;17.33;10.57;;;;;;;14.52;100.00;101017.00;5096841;28;20058;-77
2021/06/30 06:39:57;;;;;;;15.43;10.30;;;;;;;14.98;100.00;101016.13;5114307;28;20069;-73
2021/06/30 06:42:31;;;;;;;18.38;10.30;;;;;;;14.36;100.00;101024.25;5097083;28;20352;-75
2021/06/30 06:44:58;;;;;;;17.92;9.32;;;;;;;14.34;100.00;101023.78;5113526;28;20052;-77
2021/06/30 06:47:31;;;;;;;15.60;8.77;;;;;;;14.23;100.00;101021.63;5114163;28;20412;-71
2021/06/30 06:50:04;;;;;;;16.70;9.10;;;;;;;14.38;100.00;101023.91;5113505;28;20059;-69
2021/06/30 06:52:39;;;;;;;16.10;9.20;;;;;;;14.59;100.00;101022.06;5095530;28;20054;-70
2021/06/30 06:55:11;;;;;;;12.77;9.05;;;;;;;14.65;100.00;101024.28;5111962;28;20051;-67
2021/06/30 06:57:44;;;;;;;14.38;8.65;;;;;;;14.51;100.00;101026.47;5133332;27;20047;-75
2021/06/30 07:00:17;;;;;;;14.50;8.85;;;;;;;14.33;100.00;101032.41;5117200;27;20052;-74
2021/06/30 07:02:50;;;;;;;13.32;8.45;;;;;;;14.16;100.00;101036.00;5135091;27;20142;-69
2021/06/30 07:05:22;;;;;;;17.70;8.82;;;;;;;14.20;100.00;101031.44;5133590;27;20055;-70
2021/06/30 07:07:54;;;;;;;16.45;9.55;;;;;;;14.19;100.00;101026.22;5134074;27;20046;-69
2021/06/30 07:10:27;;;;;;;19.38;9.40;;;;;;;14.09;100.00;101032.91;5116578;27;20050;-67
2021/06/30 07:12:59;;;;;;;13.38;8.90;;;;;;;14.61;100.00;101028.03;5116816;27;20055;-70
2021/06/30 07:15:32;;;;;;;18.98;9.23;;;;;;;14.56;100.00;101028.22;5132889;27;20070;-69
2021/06/30 07:18:04;;;;;;;13.35;9.25;;;;;;;14.73;100.00;101035.69;5133458;27;20479;-72
2021/06/30 07:20:36;;;;;;;12.82;8.55;;;;;;;14.80;99.50;101038.75;5134166;27;20466;-72
2021/06/30 07:23:10;;;;;;;16.52;8.88;;;;;;;14.76;100.00;101044.16;5148079;27;20054;-68
2021/06/30 07:25:42;;;;;;;10.52;7.20;;;;;;;14.91;97.96;101040.78;5133214;27;20078;-66
2021/06/30 07:28:14;;;;;;;10.40;6.60;;;;;;;14.87;95.07;101037.06;5099604;27;20046;-67
2021/06/30 07:30:42;;;;;;;12.90;6.78;;;;;;;15.27;94.96;101038.28;5133727;27;20039;-64
2021/06/30 07:33:14;;;;;;;11.40;6.28;;;;;;;15.12;92.82;101041.66;5134123;27;20524;-65
2021/06/30 07:35:47;;;;;;;15.32;6.70;;;;;;;15.17;93.85;101040.63;5133014;27;20205;-66
2021/06/30 07:38:21;;;;;;;13.35;7.43;;;;;;;15.26;93.72;101050.56;5115560;27;20051;-65
2021/06/30 07:40:54;;;;;;;13.88;7.03;;;;;;;15.28;93.46;101050.22;5114769;27;20406;-68
2021/06/30 07:43:26;;;;;;;11.27;6.18;;;;;;;15.28;92.67;101051.03;5115372;27;20054;-66
2021/06/30 07:45:53;;;;;;;12.00;6.15;;;;;;;15.29;91.86;101058.19;5132449;27;20054;-65
2021/06/30 07:48:21;;;;;;;11.30;5.88;;;;;;;15.25;92.43;101060.03;5133397;27;20402;-64
2021/06/30 07:50:49;;;;;;;10.63;5.90;;;;;;;15.25;91.49;101056.44;5133341;27;20043;-66
2021/06/30 07:53:17;;;;;;;9.73;6.25;;;;;;;15.51;90.28;101063.47;5132358;27;20055;-69
2021/06/30 07:55:46;;;;;;;9.60;6.55;;;;;;;15.50;90.60;101064.59;5132232;27;20055;-68
2021/06/30 07:58:14;;;;;;;11.25;6.88;;;;;;;15.25;91.76;101062.00;5114374;27;20058;-69
2021/06/30 08:00:41;;;;;;;12.50;6.93;;;;;;;15.25;90.98;101053.66;5132985;27;20138;-69
2021/06/30 08:03:09;;;;;;;12.52;6.72;;;;;;;15.72;89.43;101052.38;5133083;27;20044;-68
2021/06/30 08:05:36;;;;;;;15.73;8.15;;;;;;;15.79;89.42;101052.63;5132537;27;20390;-67
2021/06/30 08:08:04;;;;;;;20.27;7.28;;;;;;;15.90;88.13;101044.69;5113606;27;20054;-69
2021/06/30 08:10:32;;;;;;;13.27;6.75;;;;;;;15.86;88.89;101054.84;5132223;27;20043;-67
2021/06/30 08:12:59;;;;;;;11.52;6.82;;;;;;;15.91;88.52;101046.31;5114174;27;20047;-64
2021/06/30 08:15:27;;;;;;;11.25;6.68;;;;;;;16.12;87.13;101050.69;5131958;27;20055;-66
2021/06/30 08:17:55;;;;;;;9.45;6.32;;;;;;;16.21;85.61;101053.38;5113309;27;20050;-72
2021/06/30 08:20:22;;;;;;;11.63;4.68;;;;;;;19.02;74.26;101043.25;5131904;27;20055;-63
2021/06/30 08:22:51;;;;;;;8.70;3.80;;;;;;;20.94;65.38;101038.44;5132086;27;20049;-62
2021/06/30 08:25:19;;;;;;;8.38;5.30;;;;;;;18.37;69.17;101048.72;5132896;27;20067;-70
2021/06/30 08:27:46;;;;;;;9.18;6.00;;;;;;;17.05;76.68;101053.50;5130861;27;20043;-72
2021/06/30 08:30:14;;;;;;;13.13;6.60;;;;;;;16.64;79.59;101054.53;5113828;27;20047;-70
2021/06/30 08:32:43;;;;;;;14.70;7.13;;;;;;;16.16;81.14;101056.38;5132467;27;20394;-67
2021/06/30 08:35:13;;;;;;;13.10;7.40;;;;;;;16.68;80.55;101051.88;5130877;27;20058;-73
2021/06/30 08:37:45;;;;;;;11.82;6.80;;;;;;;16.26;81.72;101056.75;5131800;27;20050;-71
2021/06/30 08:44:40;;;;;;;12.90;6.70;;;;;;;15.49;84.48;101054.66;5113625;27;20046;-69
2021/06/30 08:47:08;;;;;;;11.63;6.72;;;;;;;15.50;83.44;101056.28;5131075;27;20054;-69
2021/06/30 08:49:40;;;;;;;13.18;7.60;;;;;;;15.35;84.33;101058.81;5113691;27;20047;-68
2021/06/30 08:52:08;;;;;;;13.60;7.22;;;;;;;15.36;85.33;101055.69;5132055;27;20490;-70
2021/06/30 08:54:39;;;;;;;9.75;6.65;;;;;;;15.83;83.85;101048.00;5147454;27;20047;-69
2021/06/30 08:57:06;;;;;;;11.05;7.10;;;;;;;16.61;81.98;101044.13;5113796;27;20058;-68
2021/06/30 08:59:35;;;;;;;11.70;6.90;;;;;;;16.23;80.02;101049.06;5112939;27;20050;-70
2021/06/30 09:02:03;;;;;;;11.57;6.63;;;;;;;16.36;80.71;101052.72;5113617;27;20055;-69
2021/06/30 09:04:32;;;;;;;13.45;6.82;;;;;;;16.76;78.56;101051.78;5132083;27;20061;-69
2021/06/30 09:07:00;;;;;;;11.45;7.07;;;;;;;16.32;78.72;101049.00;5132058;27;20047;-71
2021/06/30 09:09:37;;;;;;;16.55;7.78;;;;;;;16.19;80.37;101058.47;5114058;27;20048;-69
2021/06/30 09:12:06;;;;;;;12.35;7.80;;;;;;;16.55;80.26;101050.22;5132463;27;20480;-73
2021/06/30 09:14:40;;;;;;;11.95;6.60;;;;;;;16.67;78.28;101055.81;5114858;28;20043;-71
2021/06/30 09:17:19;;;;;;;12.85;7.65;;;;;;;16.26;80.22;101050.38;5113329;28;20486;-72
2021/06/30 09:19:46;;;;;;;14.93;8.23;;;;;;;16.10;81.84;101050.22;5114960;28;20050;-71
2021/06/30 09:22:17;;;;;;;12.13;7.77;;;;;;;16.24;80.31;101056.28;5131538;28;20486;-68
2021/06/30 09:24:45;;;;;;;11.15;7.38;;;;;;;16.18;81.27;101051.28;5131005;28;20047;-71
2021/06/30 09:27:14;;;;;;;13.15;7.35;;;;;;;16.48;79.74;101050.81;5096315;28;20058;-71
2021/06/30 09:29:42;;;;;;;12.35;7.80;;;;;;;16.45;81.23;101059.00;5113667;28;20394;-71
2021/06/30 09:32:15;;;;;;;14.68;7.25;;;;;;;16.45;80.66;101056.22;5114485;28;20048;-72
2021/06/30 09:34:43;;;;;;;14.10;8.10;;;;;;;16.51;79.47;101066.78;5131942;28;20497;-72
2021/06/30 09:37:11;;;;;;;13.32;7.50;;;;;;;16.46;81.46;101064.22;5113314;28;20081;-73
2021/06/30 09:39:58;;;;;;;16.38;8.20;;;;;;;16.70;79.94;101069.03;5131237;28;20474;-71
2021/06/30 09:42:30;;;;;;;16.63;7.50;;;;;;;16.52;78.33;101059.28;5131457;28;20509;-70
2021/06/30 09:45:16;;;;;;;14.13;7.15;;;;;;;16.98;77.00;101058.84;5113573;28;20044;-68
2021/06/30 09:47:49;;;;;;;10.77;7.47;;;;;;;17.19;76.72;101070.66;5133824;27;20054;-71
2021/06/30 09:50:17;;;;;;;12.95;7.18;;;;;;;17.40;74.95;101071.34;5117673;27;20047;-74
2021/06/30 09:52:46;;;;;;;15.48;7.88;;;;;;;16.52;77.77;101070.38;5135653;27;20031;-74
2021/06/30 09:55:29;;;;;;;10.85;7.53;;;;;;;16.77;79.04;101075.63;5134503;27;20039;-72
2021/06/30 09:57:59;;;;;;;14.43;7.35;;;;;;;17.30;76.66;101066.25;5096892;28;20051;-72
2021/06/30 10:00:28;;;;;;;11.73;7.13;;;;;;;17.29;74.02;101077.75;5114633;28;20048;-72
2021/06/30 10:02:56;;;;;;;16.10;7.10;;;;;;;16.54;76.10;101082.00;5095681;28;20051;-72
2021/06/30 10:05:32;;;;;;;11.55;7.40;;;;;;;16.37;76.81;101090.50;5113682;28;20047;-71
2021/06/30 10:08:09;;;;;;;13.52;7.80;;;;;;;16.30;78.73;101074.34;5079678;28;20067;-73
2021/06/30 10:10:37;;;;;;;14.70;8.10;;;;;;;16.51;79.09;101082.69;5078214;28;20040;-75
2021/06/30 10:13:04;;;;;;;12.70;7.88;;;;;;;17.08;77.05;101075.09;5096686;28;20047;-72
2021/06/30 10:15:33;;;;;;;11.70;7.65;;;;;;;16.86;76.74;101073.56;5114671;28;20486;-72
2021/06/30 10:18:03;;;;;;;12.32;8.13;;;;;;;16.92;77.36;101084.47;5098006;28;20051;-71
2021/06/30 10:20:42;;;;;;;10.55;7.50;;;;;;;17.22;76.26;101075.56;5098017;28;20054;-70
2021/06/30 10:23:09;;;;;;;9.10;6.60;;;;;;;17.32;74.69;101079.81;5095305;28;20052;-75
2021/06/30 10:25:37;;;;;;;12.35;6.68;;;;;;;17.48;73.31;101078.78;5114264;28;20043;-71
2021/06/30 10:28:07;;;;;;;8.90;6.47;;;;;;;17.55;73.75;101079.03;5096964;28;20502;-70
2021/06/30 10:30:35;;;;;;;9.07;6.40;;;;;;;17.50;73.16;101084.84;5113637;28;20058;-72
2021/06/30 10:33:03;;;;;;;11.18;6.22;;;;;;;17.57;71.26;101079.44;5096136;28;20051;-75
2021/06/30 10:35:43;;;;;;;9.83;6.77;;;;;;;17.19;73.83;101070.66;5079911;28;20394;-72
2021/06/30 10:38:11;;;;;;;9.43;6.45;;;;;;;17.29;72.80;101078.56;5078697;28;20050;-73
2021/06/30 10:40:39;;;;;;;11.57;6.30;;;;;;;17.21;73.21;101070.34;5079668;28;20143;-73
2021/06/30 10:43:13;;;;;;;8.25;6.45;;;;;;;17.35;72.45;101071.56;5078991;28;20425;-72
2021/06/30 10:45:42;;;;;;;9.75;6.47;;;;;;;17.53;72.19;101067.41;5113084;28;20043;-72
2021/06/30 10:48:14;;;;;;;8.20;6.72;;;;;;;17.42;72.40;101073.75;5078694;28;20058;-72
2021/06/30 10:50:47;;;;;;;8.70;6.72;;;;;;;17.41;72.57;101070.19;5095857;28;20051;-71
2021/06/30 10:53:25;;;;;;;10.75;6.97;;;;;;;17.83;72.17;101065.13;5095641;28;20048;-70
2021/06/30 10:55:58;;;;;;;8.85;6.13;;;;;;;17.98;70.63;101065.19;5097933;27;20055;-71
2021/06/30 10:58:28;;;;;;;11.85;7.20;;;;;;;17.66;71.09;101071.00;5114257;28;20482;-71
2021/06/30 11:01:00;;;;;;;;;;;;;;;17.23;72.79;101074.38;5099090;27;20049;-73
2021/06/30 11:03:38;;;;;;;10.90;7.00;;;;;;;17.34;72.69;101069.97;5134582;27;20278;-71
2021/06/30 11:06:14;;;;;;;12.27;7.28;;;;;;;17.64;72.03;101074.09;5115162;27;20079;-73
2021/06/30 11:08:59;;;;;;;9.73;7.22;;;;;;;17.54;71.50;101080.16;5133458;27;20266;-72
2021/06/30 11:11:32;;;;;;;9.50;7.18;;;;;;;17.27;71.73;101080.88;5115115;27;20485;-73
2021/06/30 11:14:05;;;;;;;14.07;7.15;;;;;;;17.29;70.47;101091.66;5134153;27;20043;-73
2021/06/30 11:16:43;;;;;;;9.05;6.70;;;;;;;17.54;70.25;101088.53;5133423;27;20051;-75
2021/06/30 11:19:16;;;;;;;13.35;7.20;;;;;;;17.82;68.85;101083.81;5133320;27;20043;-73
2021/06/30 11:21:46;;;;;;;11.38;7.28;;;;;;;17.38;69.82;101082.00;5114806;27;20069;-74
2021/06/30 11:24:32;;;;;;;;;;;;;;;17.57;68.80;101087.03;5133796;27;20052;-73
2021/06/30 11:27:23;;;;;;;16.55;7.15;;;;;;;17.59;68.24;101091.06;5118313;27;19926;-71
2021/06/30 11:29:53;;;;;;;9.48;6.72;;;;;;;17.90;67.52;101080.06;5132802;27;20051;-71
2021/06/30 11:32:36;;;;;;;13.10;6.93;;;;;;;18.19;65.65;101069.72;5133174;27;20047;-70
2021/06/30 11:35:10;;;;;;;17.45;7.05;;;;;;;18.51;64.92;101074.25;5133167;27;20062;-67
2021/06/30 11:37:39;;;;;;;8.02;5.95;;;;;;;18.09;65.46;101071.06;5114562;27;20047;-69
2021/06/30 11:44:37;;;;;;;9.52;6.97;;;;;;;17.61;67.83;101087.91;5133505;27;20047;-71
2021/06/30 11:47:06;;;;;;;10.80;7.50;;;;;;;17.56;68.02;101088.16;5132317;27;20051;-73
2021/06/30 11:49:34;;;;;;;11.40;7.47;;;;;;;17.76;68.34;101101.13;5114870;27;20051;-72
2021/06/30 11:52:03;;;;;;;9.70;6.93;;;;;;;17.53;68.37;101094.44;5115518;27;20043;-70
2021/06/30 11:54:30;;;;;;;13.98;7.40;;;;;;;17.57;67.67;101081.44;5132955;27;20046;-70
2021/06/30 11:56:58;;;;;;;13.00;7.53;;;;;;;17.43;68.84;101080.97;5129955;27;20086;-69
2021/06/30 11:59:26;;;;;;;13.68;7.53;;;;;;;17.64;68.06;101088.03;5114692;27;20062;-69
2021/06/30 12:01:54;;;;;;;13.70;7.32;;;;;;;18.02;66.93;101084.78;5132317;27;20051;-70
2021/06/30 12:04:27;;;;;;;12.10;7.03;;;;;;;17.60;66.67;101092.69;5148816;27;20051;-71
2021/06/30 12:06:55;;;;;;;10.23;6.65;;;;;;;17.49;66.51;101091.56;5114882;27;20525;-69
2021/06/30 12:09:41;;;;;;;11.15;6.47;;;;;;;17.30;67.18;101099.66;5132258;27;20185;-69
2021/06/30 12:12:10;;;;;;;9.40;6.70;;;;;;;17.21;68.73;101098.19;5133012;27;20051;-70
2021/06/30 12:14:49;;;;;;;10.60;6.65;;;;;;;17.30;67.79;101112.75;5132650;27;20398;-71
2021/06/30 12:17:20;;;;;;;10.30;7.05;;;;;;;17.27;68.02;101107.91;5131922;27;20073;-70
2021/06/30 12:19:51;;;;;;;9.20;6.57;;;;;;;17.24;68.33;101106.66;5132010;27;20513;-72
2021/06/30 12:22:29;;;;;;;9.85;6.82;;;;;;;17.19;68.73;101112.41;5114746;27;20035;-69